sensor_id;sensor_type;location;lat;lon;timestamp;pressure;altitude;pressure_sealevel;temperature;humidity
72892;BME280;61032;50.782;6.818;2022-10-15T00:00:50;99762.53;;;15.10;85.03
72892;BME280;61032;50.782;6.818;2022-10-15T00:01:50;99762.53;;;15.10;84.97
72892;BME280;61032;50.782;6.818;2022-10-15T00:02:51;99763.34;;;15.11;85.20
72892;BME280;61032;50.782;6.818;2022-10-15T00:03:51;99759.34;;;15.08;84.92
72892;BME280;61032;50.782;6.818;2022-10-15T00:04:52;99762.13;;;15.08;85.17
72892;BME280;61032;50.782;6.818;2022-10-15T00:05:52;99756.97;;;15.07;85.21
72892;BME280;61032;50.782;6.818;2022-10-15T00:06:52;99756.16;;;15.06;85.32
72892;BME280;61032;50.782;6.818;2022-10-15T00:07:52;99760.09;;;15.05;85.54
72892;BME280;61032;50.782;6.818;2022-10-15T00:08:54;99762.91;;;15.09;85.43
72892;BME280;61032;50.782;6.818;2022-10-15T00:09:54;99758.19;;;15.09;85.68
72892;BME280;61032;50.782;6.818;2022-10-15T00:10:54;99757.00;;;15.10;85.38
72892;BME280;61032;50.782;6.818;2022-10-15T00:11:55;99763.25;;;15.04;85.03
72892;BME280;61032;50.782;6.818;2022-10-15T00:12:55;99765.53;;;14.98;85.26
72892;BME280;61032;50.782;6.818;2022-10-15T00:13:57;99756.06;;;14.99;84.93
72892;BME280;61032;50.782;6.818;2022-10-15T00:14:58;99756.50;;;15.01;85.67
72892;BME280;61032;50.782;6.818;2022-10-15T00:15:59;99758.09;;;15.02;85.33
72892;BME280;61032;50.782;6.818;2022-10-15T00:16:59;99754.09;;;15.00;85.34
72892;BME280;61032;50.782;6.818;2022-10-15T00:18:00;99760.00;;;14.98;85.60
72892;BME280;61032;50.782;6.818;2022-10-15T00:19:00;99756.84;;;14.96;85.67
72892;BME280;61032;50.782;6.818;2022-10-15T00:20:02;99754.47;;;14.98;85.75
72892;BME280;61032;50.782;6.818;2022-10-15T00:21:05;99748.13;;;14.94;85.65
72892;BME280;61032;50.782;6.818;2022-10-15T00:22:06;99738.97;;;14.90;85.73
72892;BME280;61032;50.782;6.818;2022-10-15T00:23:06;99744.50;;;14.90;86.15
72892;BME280;61032;50.782;6.818;2022-10-15T00:24:08;99750.44;;;14.89;86.11
72892;BME280;61032;50.782;6.818;2022-10-15T00:25:09;99736.97;;;14.87;86.23
72892;BME280;61032;50.782;6.818;2022-10-15T00:26:12;99744.94;;;14.92;86.21
72892;BME280;61032;50.782;6.818;2022-10-15T00:27:13;99739.81;;;14.94;86.02
72892;BME280;61032;50.782;6.818;2022-10-15T00:28:13;99744.97;;;14.96;86.02
72892;BME280;61032;50.782;6.818;2022-10-15T00:29:14;99745.31;;;14.91;85.79
72892;BME280;61032;50.782;6.818;2022-10-15T00:30:14;99742.59;;;14.94;85.96
72892;BME280;61032;50.782;6.818;2022-10-15T00:31:16;99743.00;;;14.96;85.65
72892;BME280;61032;50.782;6.818;2022-10-15T00:32:17;99741.81;;;14.97;85.85
72892;BME280;61032;50.782;6.818;2022-10-15T00:33:17;99748.53;;;14.96;85.42
72892;BME280;61032;50.782;6.818;2022-10-15T00:34:17;99742.16;;;14.92;85.63
72892;BME280;61032;50.782;6.818;2022-10-15T00:35:17;99742.50;;;14.87;85.91
72892;BME280;61032;50.782;6.818;2022-10-15T00:36:21;99746.06;;;14.88;85.70
72892;BME280;61032;50.782;6.818;2022-10-15T00:37:22;99744.09;;;14.88;85.63
72892;BME280;61032;50.782;6.818;2022-10-15T00:38:23;99744.50;;;14.90;85.60
72892;BME280;61032;50.782;6.818;2022-10-15T00:39:23;99745.31;;;14.91;85.69
72892;BME280;61032;50.782;6.818;2022-10-15T00:40:23;99746.91;;;14.92;85.55
72892;BME280;61032;50.782;6.818;2022-10-15T00:41:27;99741.38;;;14.92;85.51
72892;BME280;61032;50.782;6.818;2022-10-15T00:42:28;99731.09;;;14.92;85.06
72892;BME280;61032;50.782;6.818;2022-10-15T00:45:14;99725.47;;;14.85;85.85
72892;BME280;61032;50.782;6.818;2022-10-15T00:46:34;99724.28;;;14.86;86.01
72892;BME280;61032;50.782;6.818;2022-10-15T00:47:38;99722.59;;;14.78;85.97
72892;BME280;61032;50.782;6.818;2022-10-15T00:48:39;99728.06;;;14.71;86.17
72892;BME280;61032;50.782;6.818;2022-10-15T00:49:44;99724.94;;;14.72;86.38
72892;BME280;61032;50.782;6.818;2022-10-15T00:50:46;99726.94;;;14.75;86.50
72892;BME280;61032;50.782;6.818;2022-10-15T00:51:53;99734.47;;;14.75;86.17
72892;BME280;61032;50.782;6.818;2022-10-15T00:53:01;99736.03;;;14.76;86.10
72892;BME280;61032;50.782;6.818;2022-10-15T00:54:02;99736.81;;;14.76;86.39
72892;BME280;61032;50.782;6.818;2022-10-15T00:55:11;99732.50;;;14.79;85.95
72892;BME280;61032;50.782;6.818;2022-10-15T00:56:12;99741.59;;;14.79;86.05
72892;BME280;61032;50.782;6.818;2022-10-15T00:57:14;99737.63;;;14.77;86.44
72892;BME280;61032;50.782;6.818;2022-10-15T00:58:17;99747.50;;;14.78;86.19
72892;BME280;61032;50.782;6.818;2022-10-15T00:59:23;99749.47;;;14.77;86.26
72892;BME280;61032;50.782;6.818;2022-10-15T01:00:26;99753.41;;;14.73;86.13
72892;BME280;61032;50.782;6.818;2022-10-15T01:01:27;99755.00;;;14.74;86.33
72892;BME280;61032;50.782;6.818;2022-10-15T01:02:28;99753.03;;;14.74;86.16
72892;BME280;61032;50.782;6.818;2022-10-15T01:03:28;99751.06;;;14.75;86.30
72892;BME280;61032;50.782;6.818;2022-10-15T01:04:29;99741.97;;;14.78;86.06
72892;BME280;61032;50.782;6.818;2022-10-15T01:05:30;99747.88;;;14.76;85.81
72892;BME280;61032;50.782;6.818;2022-10-15T01:06:31;99745.53;;;14.75;85.89
72892;BME280;61032;50.782;6.818;2022-10-15T01:07:31;99743.94;;;14.74;86.05
72892;BME280;61032;50.782;6.818;2022-10-15T01:08:33;99745.53;;;14.75;86.04
72892;BME280;61032;50.782;6.818;2022-10-15T01:09:33;99747.88;;;14.76;85.83
72892;BME280;61032;50.782;6.818;2022-10-15T01:10:44;99736.44;;;14.74;86.13
72892;BME280;61032;50.782;6.818;2022-10-15T01:11:50;99739.94;;;14.71;86.17
72892;BME280;61032;50.782;6.818;2022-10-15T01:13:00;99745.09;;;14.73;86.56
72892;BME280;61032;50.782;6.818;2022-10-15T01:14:43;99742.28;;;14.69;86.26
72892;BME280;61032;50.782;6.818;2022-10-15T01:15:53;99746.19;;;14.65;86.88
72892;BME280;61032;50.782;6.818;2022-10-15T01:17:21;99754.06;;;14.63;86.79
72892;BME280;61032;50.782;6.818;2022-10-15T01:18:33;99746.94;;;14.62;86.72
72892;BME280;61032;50.782;6.818;2022-10-15T01:21:32;99745.38;;;14.64;87.00
72892;BME280;61032;50.782;6.818;2022-10-15T01:28:05;99742.13;;;14.59;87.00
72892;BME280;61032;50.782;6.818;2022-10-15T01:29:31;99738.94;;;14.57;87.41
72892;BME280;61032;50.782;6.818;2022-10-15T01:30:41;99744.84;;;14.55;87.12
72892;BME280;61032;50.782;6.818;2022-10-15T01:32:02;99742.09;;;14.55;87.13
72892;BME280;61032;50.782;6.818;2022-10-15T01:35:47;99738.13;;;14.53;87.23
72892;BME280;61032;50.782;6.818;2022-10-15T01:37:10;99739.66;;;14.50;86.87
72892;BME280;61032;50.782;6.818;2022-10-15T01:38:35;99749.19;;;14.53;87.21
72892;BME280;61032;50.782;6.818;2022-10-15T01:39:44;99750.78;;;14.54;87.33
72892;BME280;61032;50.782;6.818;2022-10-15T01:41:02;99751.97;;;14.53;87.18
72892;BME280;61032;50.782;6.818;2022-10-15T01:42:14;99738.94;;;14.57;87.05
72892;BME280;61032;50.782;6.818;2022-10-15T01:43:21;99740.53;;;14.58;87.11
72892;BME280;61032;50.782;6.818;2022-10-15T01:44:30;99747.25;;;14.57;87.08
72892;BME280;61032;50.782;6.818;2022-10-15T01:45:35;99740.53;;;14.58;87.33
72892;BME280;61032;50.782;6.818;2022-10-15T01:46:48;99745.66;;;14.56;87.11
72892;BME280;61032;50.782;6.818;2022-10-15T01:47:53;99738.94;;;14.57;86.98
72892;BME280;61032;50.782;6.818;2022-10-15T01:48:55;99744.91;;;14.59;86.84
72892;BME280;61032;50.782;6.818;2022-10-15T01:49:59;99735.06;;;14.61;87.07
72892;BME280;61032;50.782;6.818;2022-10-15T01:51:03;99743.72;;;14.60;86.92
72892;BME280;61032;50.782;6.818;2022-10-15T01:52:10;99740.97;;;14.60;86.51
72892;BME280;61032;50.782;6.818;2022-10-15T01:53:14;99739.38;;;14.59;86.54
72892;BME280;61032;50.782;6.818;2022-10-15T01:54:17;99746.06;;;14.58;86.66
72892;BME280;61032;50.782;6.818;2022-10-15T01:55:19;99753.19;;;14.59;86.54
72892;BME280;61032;50.782;6.818;2022-10-15T01:56:22;99758.41;;;14.64;86.33
72892;BME280;61032;50.782;6.818;2022-10-15T01:57:23;99742.13;;;14.59;86.53
72892;BME280;61032;50.782;6.818;2022-10-15T01:58:25;99746.06;;;14.58;86.53
72892;BME280;61032;50.782;6.818;2022-10-15T01:59:31;99742.13;;;14.59;86.71
72892;BME280;61032;50.782;6.818;2022-10-15T02:00:32;99735.81;;;14.58;86.64
72892;BME280;61032;50.782;6.818;2022-10-15T02:01:33;99737.44;;;14.63;86.83
72892;BME280;61032;50.782;6.818;2022-10-15T02:02:33;99735.84;;;14.62;86.68
72892;BME280;61032;50.782;6.818;2022-10-15T02:03:51;99742.19;;;14.62;86.70
72892;BME280;61032;50.782;6.818;2022-10-15T02:04:51;99735.44;;;14.60;86.65
72892;BME280;61032;50.782;6.818;2022-10-15T02:05:58;99734.63;;;14.59;86.42
72892;BME280;61032;50.782;6.818;2022-10-15T02:07:05;99740.22;;;14.63;86.54
72892;BME280;61032;50.782;6.818;2022-10-15T02:08:18;99733.94;;;14.66;86.41
72892;BME280;61032;50.782;6.818;2022-10-15T02:09:26;99736.28;;;14.64;86.37
72892;BME280;61032;50.782;6.818;2022-10-15T02:10:52;99733.16;;;14.65;86.39
72892;BME280;61032;50.782;6.818;2022-10-15T02:13:28;99731.88;;;14.59;86.06
72892;BME280;61032;50.782;6.818;2022-10-15T02:14:52;99736.22;;;14.60;86.31
72892;BME280;61032;50.782;6.818;2022-10-15T02:17:13;99732.72;;;14.63;86.14
72892;BME280;61032;50.782;6.818;2022-10-15T02:19:51;99735.09;;;14.65;85.74
72892;BME280;61032;50.782;6.818;2022-10-15T02:21:15;99739.84;;;14.64;85.47
72892;BME280;61032;50.782;6.818;2022-10-15T02:22:21;99737.44;;;14.63;85.59
72892;BME280;61032;50.782;6.818;2022-10-15T02:23:45;99737.88;;;14.65;85.79
72892;BME280;61032;50.782;6.818;2022-10-15T02:25:04;99746.97;;;14.65;85.49
72892;BME280;61032;50.782;6.818;2022-10-15T02:26:07;99743.41;;;14.65;85.59
72892;BME280;61032;50.782;6.818;2022-10-15T02:27:11;99744.22;;;14.65;85.40
72892;BME280;61032;50.782;6.818;2022-10-15T02:28:14;99744.63;;;14.67;85.16
72892;BME280;61032;50.782;6.818;2022-10-15T02:29:19;99746.22;;;14.68;84.74
72892;BME280;61032;50.782;6.818;2022-10-15T02:30:21;99735.97;;;14.69;85.16
72892;BME280;61032;50.782;6.818;2022-10-15T02:31:22;99741.06;;;14.67;85.08
72892;BME280;61032;50.782;6.818;2022-10-15T02:32:25;99738.34;;;14.70;84.77
72892;BME280;61032;50.782;6.818;2022-10-15T02:33:26;99730.84;;;14.71;84.94
72892;BME280;61032;50.782;6.818;2022-10-15T02:34:30;99735.22;;;14.72;85.01
72892;BME280;61032;50.782;6.818;2022-10-15T02:35:32;99736.00;;;14.72;84.74
72892;BME280;61032;50.782;6.818;2022-10-15T02:36:34;99733.66;;;14.74;84.56
72892;BME280;61032;50.782;6.818;2022-10-15T02:37:42;99741.19;;;14.77;84.37
72892;BME280;61032;50.782;6.818;2022-10-15T02:38:44;99743.56;;;14.75;84.69
72892;BME280;61032;50.782;6.818;2022-10-15T02:39:45;99736.81;;;14.73;84.04
72892;BME280;61032;50.782;6.818;2022-10-15T02:40:46;99734.47;;;14.75;84.44
72892;BME280;61032;50.782;6.818;2022-10-15T02:41:47;99738.78;;;14.76;84.56
72892;BME280;61032;50.782;6.818;2022-10-15T02:42:50;99736.81;;;14.76;84.67
72892;BME280;61032;50.782;6.818;2022-10-15T02:43:50;99737.63;;;14.77;84.39
72892;BME280;61032;50.782;6.818;2022-10-15T02:44:51;99737.22;;;14.75;84.29
72892;BME280;61032;50.782;6.818;2022-10-15T02:45:51;99734.47;;;14.75;84.19
72892;BME280;61032;50.782;6.818;2022-10-15T02:46:52;99728.53;;;14.76;84.33
72892;BME280;61032;50.782;6.818;2022-10-15T02:47:52;99738.41;;;14.77;84.12
72892;BME280;61032;50.782;6.818;2022-10-15T02:48:52;99730.50;;;14.76;84.00
72892;BME280;61032;50.782;6.818;2022-10-15T02:49:52;99734.47;;;14.78;84.79
72892;BME280;61032;50.782;6.818;2022-10-15T02:50:53;99736.38;;;14.71;84.15
72892;BME280;61032;50.782;6.818;2022-10-15T02:51:53;99740.31;;;14.70;84.53
72892;BME280;61032;50.782;6.818;2022-10-15T02:52:53;99744.69;;;14.71;84.19
72892;BME280;61032;50.782;6.818;2022-10-15T02:53:54;99736.81;;;14.73;84.22
72892;BME280;61032;50.782;6.818;2022-10-15T02:54:54;99734.38;;;14.68;84.17
72892;BME280;61032;50.782;6.818;2022-10-15T02:55:54;99738.34;;;14.70;84.52
72892;BME280;61032;50.782;6.818;2022-10-15T02:56:54;99733.63;;;14.71;84.31
72892;BME280;61032;50.782;6.818;2022-10-15T02:57:55;99733.63;;;14.71;84.18
72892;BME280;61032;50.782;6.818;2022-10-15T02:58:55;99735.97;;;14.69;84.51
72892;BME280;61032;50.782;6.818;2022-10-15T02:59:56;99736.72;;;14.66;84.61
72892;BME280;61032;50.782;6.818;2022-10-15T03:00:56;99740.66;;;14.65;84.87
72892;BME280;61032;50.782;6.818;2022-10-15T03:01:56;99742.25;;;14.66;84.96
72892;BME280;61032;50.782;6.818;2022-10-15T03:02:57;99734.38;;;14.68;85.07
72892;BME280;61032;50.782;6.818;2022-10-15T03:03:57;99738.34;;;14.70;84.89
72892;BME280;61032;50.782;6.818;2022-10-15T03:04:57;99733.19;;;14.69;84.71
72892;BME280;61032;50.782;6.818;2022-10-15T03:05:58;99733.56;;;14.67;84.68
72892;BME280;61032;50.782;6.818;2022-10-15T03:06:58;99730.00;;;14.67;84.80
72892;BME280;61032;50.782;6.818;2022-10-15T03:07:59;99728.03;;;14.67;85.14
72892;BME280;61032;50.782;6.818;2022-10-15T03:08:59;99730.44;;;14.69;84.94
72892;BME280;61032;50.782;6.818;2022-10-15T03:10:00;99728.44;;;14.69;84.75
72892;BME280;61032;50.782;6.818;2022-10-15T03:11:00;99732.03;;;14.70;84.84
72892;BME280;61032;50.782;6.818;2022-10-15T03:12:01;99729.56;;;14.65;84.50
72892;BME280;61032;50.782;6.818;2022-10-15T03:13:04;99730.38;;;14.65;84.80
72892;BME280;61032;50.782;6.818;2022-10-15T03:14:05;99724.03;;;14.65;84.57
72892;BME280;61032;50.782;6.818;2022-10-15T03:15:06;99722.88;;;14.66;84.88
72892;BME280;61032;50.782;6.818;2022-10-15T03:16:08;99716.91;;;14.64;84.88
72892;BME280;61032;50.782;6.818;2022-10-15T03:17:08;99719.69;;;14.64;84.62
72892;BME280;61032;50.782;6.818;2022-10-15T03:18:09;99721.59;;;14.60;84.56
72892;BME280;61032;50.782;6.818;2022-10-15T03:19:09;99717.63;;;14.57;84.71
72892;BME280;61032;50.782;6.818;2022-10-15T03:20:10;99716.44;;;14.58;84.67
72892;BME280;61032;50.782;6.818;2022-10-15T03:21:10;99721.59;;;14.60;84.99
72892;BME280;61032;50.782;6.818;2022-10-15T03:22:10;99718.88;;;14.63;85.11
72892;BME280;61032;50.782;6.818;2022-10-15T03:23:11;99718.09;;;14.63;84.83
72892;BME280;61032;50.782;6.818;2022-10-15T03:24:11;99729.06;;;14.56;85.00
72892;BME280;61032;50.782;6.818;2022-10-15T03:25:11;99727.09;;;14.56;85.07
72892;BME280;61032;50.782;6.818;2022-10-15T03:26:12;99727.88;;;14.57;85.00
72892;BME280;61032;50.782;6.818;2022-10-15T03:27:12;99729.09;;;14.59;84.71
72892;BME280;61032;50.782;6.818;2022-10-15T03:28:12;99727.13;;;14.60;84.87
72892;BME280;61032;50.782;6.818;2022-10-15T03:29:13;99732.63;;;14.56;84.66
72892;BME280;61032;50.782;6.818;2022-10-15T03:30:13;99731.81;;;14.56;84.98
72892;BME280;61032;50.782;6.818;2022-10-15T03:31:14;99731.03;;;14.55;84.93
72892;BME280;61032;50.782;6.818;2022-10-15T03:32:14;99729.06;;;14.56;85.09
72892;BME280;61032;50.782;6.818;2022-10-15T03:33:15;99737.34;;;14.56;85.21
72892;BME280;61032;50.782;6.818;2022-10-15T03:34:15;99734.59;;;14.56;85.28
72892;BME280;61032;50.782;6.818;2022-10-15T03:35:15;99737.78;;;14.58;84.91
72892;BME280;61032;50.782;6.818;2022-10-15T03:36:16;99733.84;;;14.59;84.43
72892;BME280;61032;50.782;6.818;2022-10-15T03:37:16;99722.41;;;14.60;84.97
72892;BME280;61032;50.782;6.818;2022-10-15T03:38:16;99722.41;;;14.60;84.88
72892;BME280;61032;50.782;6.818;2022-10-15T03:39:17;99720.81;;;14.59;84.91
72892;BME280;61032;50.782;6.818;2022-10-15T03:40:17;99724.00;;;14.61;84.61
72892;BME280;61032;50.782;6.818;2022-10-15T03:41:17;99722.41;;;14.60;85.01
72892;BME280;61032;50.782;6.818;2022-10-15T03:42:18;99732.66;;;14.60;85.00
72892;BME280;61032;50.782;6.818;2022-10-15T03:43:18;99734.63;;;14.59;84.93
72892;BME280;61032;50.782;6.818;2022-10-15T03:44:18;99733.84;;;14.59;84.68
72892;BME280;61032;50.782;6.818;2022-10-15T03:45:19;99731.88;;;14.59;84.73
72892;BME280;61032;50.782;6.818;2022-10-15T03:46:19;99728.69;;;14.57;84.40
72892;BME280;61032;50.782;6.818;2022-10-15T03:47:19;99721.56;;;14.56;84.38
72892;BME280;61032;50.782;6.818;2022-10-15T03:48:20;99731.81;;;14.56;84.25
72892;BME280;61032;50.782;6.818;2022-10-15T03:49:20;99724.72;;;14.55;84.70
72892;BME280;61032;50.782;6.818;2022-10-15T03:50:21;99728.25;;;14.55;84.54
72892;BME280;61032;50.782;6.818;2022-10-15T03:51:21;99731.44;;;14.54;84.67
72892;BME280;61032;50.782;6.818;2022-10-15T03:52:21;99734.19;;;14.54;84.91
72892;BME280;61032;50.782;6.818;2022-10-15T03:53:22;99727.06;;;14.53;84.85
72892;BME280;61032;50.782;6.818;2022-10-15T03:54:23;99736.56;;;14.55;85.03
72892;BME280;61032;50.782;6.818;2022-10-15T03:55:23;99739.66;;;14.50;84.94
72892;BME280;61032;50.782;6.818;2022-10-15T03:56:23;99729.78;;;14.49;85.14
72892;BME280;61032;50.782;6.818;2022-10-15T03:57:23;99733.34;;;14.50;84.88
72892;BME280;61032;50.782;6.818;2022-10-15T03:58:24;99732.59;;;14.53;85.29
72892;BME280;61032;50.782;6.818;2022-10-15T03:59:24;99732.22;;;14.54;85.05
72892;BME280;61032;50.782;6.818;2022-10-15T04:00:25;99740.53;;;14.54;84.92
72892;BME280;61032;50.782;6.818;2022-10-15T04:01:25;99733.78;;;14.55;85.01
72892;BME280;61032;50.782;6.818;2022-10-15T04:02:25;99733.03;;;14.55;84.97
72892;BME280;61032;50.782;6.818;2022-10-15T04:03:26;99738.13;;;14.53;84.71
72892;BME280;61032;50.782;6.818;2022-10-15T04:04:26;99738.94;;;14.57;84.94
72892;BME280;61032;50.782;6.818;2022-10-15T04:05:27;99742.09;;;14.55;84.79
72892;BME280;61032;50.782;6.818;2022-10-15T04:06:27;99738.94;;;14.57;84.65
72892;BME280;61032;50.782;6.818;2022-10-15T04:07:27;99736.19;;;14.57;84.57
72892;BME280;61032;50.782;6.818;2022-10-15T04:08:28;99736.19;;;14.57;84.50
72892;BME280;61032;50.782;6.818;2022-10-15T04:09:28;99737.75;;;14.54;84.48
72892;BME280;61032;50.782;6.818;2022-10-15T04:10:28;99737.34;;;14.56;84.89
72892;BME280;61032;50.782;6.818;2022-10-15T04:11:29;99744.84;;;14.52;84.57
72892;BME280;61032;50.782;6.818;2022-10-15T04:12:29;99732.59;;;14.53;84.70
72892;BME280;61032;50.782;6.818;2022-10-15T04:13:29;99732.59;;;14.53;84.66
72892;BME280;61032;50.782;6.818;2022-10-15T04:14:29;99729.41;;;14.51;85.02
72892;BME280;61032;50.782;6.818;2022-10-15T04:15:30;99728.66;;;14.54;84.94
72892;BME280;61032;50.782;6.818;2022-10-15T04:16:30;99725.09;;;14.53;84.92
72892;BME280;61032;50.782;6.818;2022-10-15T04:17:30;99715.56;;;14.51;84.86
72892;BME280;61032;50.782;6.818;2022-10-15T04:18:31;99721.84;;;14.48;84.67
72892;BME280;61032;50.782;6.818;2022-10-15T04:19:32;99711.97;;;14.47;84.78
72892;BME280;61032;50.782;6.818;2022-10-15T04:20:32;99705.59;;;14.42;84.83
72892;BME280;61032;50.782;6.818;2022-10-15T04:21:32;99706.38;;;14.43;84.83
72892;BME280;61032;50.782;6.818;2022-10-15T04:22:33;99703.25;;;14.44;84.79
72892;BME280;61032;50.782;6.818;2022-10-15T04:23:33;99706.00;;;14.44;84.75
72892;BME280;61032;50.782;6.818;2022-10-15T04:24:34;99705.59;;;14.42;85.09
72892;BME280;61032;50.782;6.818;2022-10-15T04:25:35;99700.84;;;14.43;84.93
72892;BME280;61032;50.782;6.818;2022-10-15T04:26:36;99697.72;;;14.44;85.12
72892;BME280;61032;50.782;6.818;2022-10-15T04:27:36;99706.44;;;14.47;85.12
72892;BME280;61032;50.782;6.818;2022-10-15T04:28:37;99697.34;;;14.46;84.92
72892;BME280;61032;50.782;6.818;2022-10-15T04:29:37;99698.88;;;14.43;84.79
72892;BME280;61032;50.782;6.818;2022-10-15T04:30:37;99708.41;;;14.46;84.84
72892;BME280;61032;50.782;6.818;2022-10-15T04:31:37;99708.78;;;14.44;84.95
72892;BME280;61032;50.782;6.818;2022-10-15T04:32:38;99703.63;;;14.43;84.67
72892;BME280;61032;50.782;6.818;2022-10-15T04:33:38;99711.13;;;14.42;85.04
72892;BME280;61032;50.782;6.818;2022-10-15T04:34:38;99704.78;;;14.42;84.61
72892;BME280;61032;50.782;6.818;2022-10-15T04:35:39;99711.91;;;14.43;84.67
72892;BME280;61032;50.782;6.818;2022-10-15T04:36:39;99712.28;;;14.41;84.70
72892;BME280;61032;50.782;6.818;2022-10-15T04:37:39;99719.00;;;14.40;84.55
72892;BME280;61032;50.782;6.818;2022-10-15T04:38:40;99724.94;;;14.42;84.85
72892;BME280;61032;50.782;6.818;2022-10-15T04:39:40;99730.84;;;14.41;84.48
72892;BME280;61032;50.782;6.818;2022-10-15T04:40:40;99726.13;;;14.41;85.00
72892;BME280;61032;50.782;6.818;2022-10-15T04:41:41;99727.72;;;14.42;84.94
72892;BME280;61032;50.782;6.818;2022-10-15T04:42:41;99725.75;;;14.43;84.75
72892;BME280;61032;50.782;6.818;2022-10-15T04:43:41;99719.78;;;14.41;84.46
72892;BME280;61032;50.782;6.818;2022-10-15T04:44:42;99725.22;;;14.34;84.53
72892;BME280;61032;50.782;6.818;2022-10-15T04:45:42;99724.41;;;14.33;84.99
72892;BME280;61032;50.782;6.818;2022-10-15T04:46:43;99728.75;;;14.34;85.04
72892;BME280;61032;50.782;6.818;2022-10-15T04:47:43;99729.94;;;14.33;84.94
72892;BME280;61032;50.782;6.818;2022-10-15T04:48:44;99730.75;;;14.37;85.24
72892;BME280;61032;50.782;6.818;2022-10-15T04:49:44;99733.91;;;14.36;84.91
72892;BME280;61032;50.782;6.818;2022-10-15T04:50:44;99734.69;;;14.36;84.64
72892;BME280;61032;50.782;6.818;2022-10-15T04:51:45;99732.34;;;14.38;85.11
72892;BME280;61032;50.782;6.818;2022-10-15T04:52:45;99737.50;;;14.40;84.85
72892;BME280;61032;50.782;6.818;2022-10-15T04:53:45;99732.44;;;14.42;84.64
72892;BME280;61032;50.782;6.818;2022-10-15T04:54:46;99737.97;;;14.42;84.80
72892;BME280;61032;50.782;6.818;2022-10-15T04:55:46;99736.81;;;14.43;84.58
72892;BME280;61032;50.782;6.818;2022-10-15T04:56:47;99730.91;;;14.44;84.63
72892;BME280;61032;50.782;6.818;2022-10-15T04:57:47;99726.97;;;14.46;84.33
72892;BME280;61032;50.782;6.818;2022-10-15T04:58:48;99727.72;;;14.42;84.63
72892;BME280;61032;50.782;6.818;2022-10-15T04:59:49;99730.06;;;14.40;84.75
72892;BME280;61032;50.782;6.818;2022-10-15T05:00:49;99725.66;;;14.39;84.51
72892;BME280;61032;50.782;6.818;2022-10-15T05:01:49;99727.72;;;14.42;84.68
72892;BME280;61032;50.782;6.818;2022-10-15T05:02:50;99723.78;;;14.43;84.51
72892;BME280;61032;50.782;6.818;2022-10-15T05:03:50;99729.34;;;14.47;84.76
72892;BME280;61032;50.782;6.818;2022-10-15T05:04:50;99729.34;;;14.47;84.39
72892;BME280;61032;50.782;6.818;2022-10-15T05:05:50;99728.56;;;14.47;84.60
72892;BME280;61032;50.782;6.818;2022-10-15T05:06:51;99723.03;;;14.47;84.97
72892;BME280;61032;50.782;6.818;2022-10-15T05:07:51;99724.63;;;14.48;84.49
72892;BME280;61032;50.782;6.818;2022-10-15T05:08:52;99729.31;;;14.43;84.40
72892;BME280;61032;50.782;6.818;2022-10-15T05:09:52;99730.91;;;14.44;84.48
72892;BME280;61032;50.782;6.818;2022-10-15T05:10:52;99726.78;;;14.35;84.21
72892;BME280;61032;50.782;6.818;2022-10-15T05:11:52;99726.41;;;14.36;84.67
72892;BME280;61032;50.782;6.818;2022-10-15T05:12:54;99732.34;;;14.38;84.63
72892;BME280;61032;50.782;6.818;2022-10-15T05:13:57;99740.22;;;14.33;84.31
72892;BME280;61032;50.782;6.818;2022-10-15T05:14:58;99735.00;;;14.28;84.80
72892;BME280;61032;50.782;6.818;2022-10-15T05:16:27;99722.34;;;14.27;85.04
72892;BME280;61032;50.782;6.818;2022-10-15T05:17:29;99730.56;;;14.23;85.02
72892;BME280;61032;50.782;6.818;2022-10-15T05:18:29;99721.91;;;14.25;85.14
72892;BME280;61032;50.782;6.818;2022-10-15T05:19:30;99730.25;;;14.28;84.97
72892;BME280;61032;50.782;6.818;2022-10-15T05:20:30;99729.78;;;14.23;84.51
72892;BME280;61032;50.782;6.818;2022-10-15T05:21:33;99725.78;;;14.20;85.13
72892;BME280;61032;50.782;6.818;2022-10-15T05:22:33;99728.88;;;14.15;84.93
72892;BME280;61032;50.782;6.818;2022-10-15T05:23:34;99729.66;;;14.12;85.29
72892;BME280;61032;50.782;6.818;2022-10-15T05:24:35;99731.97;;;14.10;85.53
72892;BME280;61032;50.782;6.818;2022-10-15T05:25:36;99737.50;;;14.10;85.86
72892;BME280;61032;50.782;6.818;2022-10-15T05:26:36;99739.09;;;14.11;85.59
72892;BME280;61032;50.782;6.818;2022-10-15T05:27:36;99739.09;;;14.11;85.59
72892;BME280;61032;50.782;6.818;2022-10-15T05:28:37;99742.25;;;14.09;85.50
72892;BME280;61032;50.782;6.818;2022-10-15T05:29:37;99740.66;;;14.08;85.35
72892;BME280;61032;50.782;6.818;2022-10-15T05:30:38;99740.59;;;14.05;85.33
72892;BME280;61032;50.782;6.818;2022-10-15T05:31:39;99740.59;;;14.05;85.40
72892;BME280;61032;50.782;6.818;2022-10-15T05:32:39;99737.41;;;14.03;85.52
72892;BME280;61032;50.782;6.818;2022-10-15T05:33:40;99747.22;;;14.00;85.28
72892;BME280;61032;50.782;6.818;2022-10-15T05:34:40;99740.91;;;14.00;85.33
72892;BME280;61032;50.782;6.818;2022-10-15T05:35:40;99745.63;;;13.99;85.67
72892;BME280;61032;50.782;6.818;2022-10-15T05:36:41;99734.94;;;13.98;85.26
72892;BME280;61032;50.782;6.818;2022-10-15T05:37:41;99749.13;;;13.96;85.50
72892;BME280;61032;50.782;6.818;2022-10-15T05:38:42;99752.25;;;13.95;85.55
72892;BME280;61032;50.782;6.818;2022-10-15T05:39:43;99747.06;;;13.90;85.29
72892;BME280;61032;50.782;6.818;2022-10-15T05:40:47;99739.59;;;13.90;85.43
72892;BME280;61032;50.782;6.818;2022-10-15T05:41:48;99736.38;;;13.88;85.62
72892;BME280;61032;50.782;6.818;2022-10-15T05:42:51;99737.97;;;13.89;85.67
72892;BME280;61032;50.782;6.818;2022-10-15T05:43:54;99743.88;;;13.88;85.36
72892;BME280;61032;50.782;6.818;2022-10-15T05:44:54;99741.84;;;13.85;85.44
72892;BME280;61032;50.782;6.818;2022-10-15T05:45:55;99745.84;;;13.87;85.16
72892;BME280;61032;50.782;6.818;2022-10-15T05:46:56;99743.03;;;13.84;85.50
72892;BME280;61032;50.782;6.818;2022-10-15T05:47:56;99734.66;;;13.80;85.89